Time;durP1;ratioP1;P1;durP2;ratioP2;P2;SDS_P1;SDS_P2;PMS_P1;PMS_P2;Temp;Humidity;BMP_temperature;BMP_pressure;BME280_temperature;BME280_humidity;BME280_pressure;Samples;Min_cycle;Max_cycle;Signal;HPM_P1;HPM_P2
2022/12/10 00:02:16;;;;;;;0.00;0.00;;;;;;;-2.90;98.90;99702.88;6156973;23;20013;-79
2022/12/10 00:04:41;;;;;;;0.00;0.00;;;;;;;-2.66;99.80;99733.69;6111253;23;20013;-78
2022/12/10 00:07:07;;;;;;;0.00;0.00;;;;;;;-2.74;99.67;99728.53;6154135;23;20119;-79
2022/12/10 00:09:35;;;;;;;0.00;0.00;;;;;;;-2.81;98.60;99720.44;6156188;23;20009;-77
2022/12/10 00:12:02;;;;;;;0.10;0.10;;;;;;;-2.87;98.60;99722.03;6156485;23;20035;-79
2022/12/10 00:14:36;;;;;;;0.10;0.10;;;;;;;-2.95;98.78;99707.97;6163119;23;20009;-80
2022/12/10 00:17:04;;;;;;;0.00;0.00;;;;;;;-2.94;98.68;99725.69;6133703;23;20049;-81
2022/12/10 00:19:32;;;;;;;0.10;0.10;;;;;;;-3.08;98.55;99703.34;6130008;23;20400;-79
2022/12/10 00:21:57;;;;;;;0.00;0.00;;;;;;;-3.00;98.19;99717.41;6156828;23;20005;-78
2022/12/10 00:24:23;;;;;;;0.08;0.08;;;;;;;-3.06;98.81;99704.81;6129772;23;20013;-79
2022/12/10 00:26:48;;;;;;;0.00;0.00;;;;;;;-3.14;98.67;99690.75;6128857;23;20043;-80
2022/12/10 00:29:16;;;;;;;0.00;0.00;;;;;;;-3.00;98.39;99712.06;6130715;23;20035;-80
2022/12/10 00:31:41;;;;;;;0.08;0.08;;;;;;;-3.08;98.42;99701.53;6148734;23;20089;-79
2022/12/10 00:34:09;;;;;;;0.03;0.03;;;;;;;-2.89;98.73;99728.59;6132051;23;20092;-80
2022/12/10 00:36:41;;;;;;;0.00;0.00;;;;;;;-2.91;99.02;99727.97;6180368;23;20104;-80
2022/12/10 00:39:07;;;;;;;0.10;0.10;;;;;;;-2.94;98.94;99739.06;6157513;23;20009;-78
2022/12/10 00:41:33;;;;;;;0.10;0.10;;;;;;;-3.02;98.80;99735.53;6154601;23;20015;-80
2022/12/10 00:43:58;;;;;;;0.00;0.00;;;;;;;-3.07;99.10;99727.22;6132948;23;20013;-80
2022/12/10 00:46:24;;;;;;;0.08;0.08;;;;;;;-3.19;98.80;99708.22;6107904;23;20281;-80
2022/12/10 00:48:52;;;;;;;0.00;0.00;;;;;;;-3.09;98.86;99723.94;6132110;23;20012;-78
2022/12/10 00:51:23;;;;;;;0.00;0.00;;;;;;;-3.11;98.32;99726.00;6151457;23;20350;-78
2022/12/10 00:53:51;;;;;;;0.10;0.10;;;;;;;-3.16;98.12;99720.38;6157823;23;20088;-78
2022/12/10 00:56:22;;;;;;;0.00;0.00;;;;;;;-3.22;97.57;99734.53;6134265;23;20045;-80
2022/12/10 00:58:49;;;;;;;0.00;0.00;;;;;;;-3.46;97.59;99707.19;6158794;23;20004;-77
2022/12/10 01:01:36;;;;;;;0.00;0.00;;;;;;;-3.40;97.96;99738.50;6156878;23;20013;-78
2022/12/10 01:04:09;;;;;;;0.03;0.03;;;;;;;-3.55;97.68;99729.69;6154069;23;20001;-80
2022/12/10 01:06:49;;;;;;;0.00;0.00;;;;;;;-3.64;98.02;99733.53;6152870;23;20056;-79
2022/12/10 01:09:20;;;;;;;0.00;0.00;;;;;;;-3.64;98.26;99746.88;6178995;23;20004;-79
2022/12/10 01:11:47;;;;;;;0.10;0.10;;;;;;;-3.71;98.00;99742.31;6152102;23;20016;-79
2022/12/10 01:14:17;;;;;;;0.00;0.00;;;;;;;-3.80;98.06;99738.06;6154738;23;20025;-79
2022/12/10 01:16:43;;;;;;;0.10;0.10;;;;;;;-3.71;98.02;99741.47;6151037;23;20048;-77
2022/12/10 01:19:10;;;;;;;0.10;0.10;;;;;;;-3.63;98.08;99729.84;6129678;23;20068;-78
2022/12/10 01:21:36;;;;;;;0.00;0.00;;;;;;;-3.48;99.05;99725.25;6174577;23;20076;-78
2022/12/10 01:24:02;;;;;;;0.10;0.10;;;;;;;-3.26;98.96;99744.78;6153798;23;20028;-78
2022/12/10 01:26:30;;;;;;;0.00;0.00;;;;;;;-3.23;99.14;99728.34;6174763;23;20036;-79
2022/12/10 01:28:56;;;;;;;0.00;0.00;;;;;;;-3.14;100.00;99731.69;6179457;23;20005;-79
2022/12/10 01:31:25;;;;;;;0.00;0.00;;;;;;;-2.94;100.00;99747.91;6131311;23;20013;-78
2022/12/10 01:33:51;;;;;;;0.00;0.00;;;;;;;-2.91;100.00;99741.34;6156287;23;20051;-79
2022/12/10 01:36:22;;;;;;;0.10;0.10;;;;;;;-2.86;100.00;99747.78;6124851;23;20036;-79
2022/12/10 01:38:49;;;;;;;0.00;0.00;;;;;;;-2.96;100.00;99727.72;6157456;23;20388;-79
2022/12/10 01:41:17;;;;;;;0.00;0.00;;;;;;;-2.95;100.00;99726.72;6147747;23;20013;-78
2022/12/10 01:44:00;;;;;;;0.10;0.10;;;;;;;-2.91;100.00;99736.00;6150521;23;20099;-79
2022/12/10 01:46:28;;;;;;;0.10;0.10;;;;;;;-2.89;100.00;99742.81;6153258;23;20459;-79
2022/12/10 01:48:54;;;;;;;0.00;0.00;;;;;;;-2.91;100.00;99736.00;6152874;23;20005;-81
2022/12/10 01:51:21;;;;;;;0.00;0.00;;;;;;;-2.89;100.00;99733.94;6149111;23;20024;-79
2022/12/10 01:53:47;;;;;;;0.10;0.10;;;;;;;-2.88;100.00;99732.94;6154373;23;20001;-78
2022/12/10 01:56:15;;;;;;;0.00;0.00;;;;;;;-2.84;100.00;99742.22;6122354;23;20013;-78
2022/12/10 01:58:41;;;;;;;0.00;0.00;;;;;;;-2.89;100.00;99740.16;6153410;23;20072;-77
2022/12/10 02:01:21;;;;;;;0.10;0.10;;;;;;;-2.93;100.00;99736.19;6100186;23;20005;-77
2022/12/10 02:04:18;;;;;;;0.10;0.10;;;;;;;-3.00;100.00;99743.34;6153043;23;20324;-76
2022/12/10 02:07:29;;;;;;;0.00;0.00;;;;;;;-3.12;100.00;99740.38;6153082;23;20427;-77
2022/12/10 02:10:30;;;;;;;0.10;0.10;;;;;;;-3.11;100.00;99747.38;6112924;23;20100;-78
2022/12/10 02:13:33;;;;;;;0.00;0.00;;;;;;;-3.15;100.00;99740.78;6178786;22;20091;-78
2022/12/10 02:16:06;;;;;;;0.00;0.00;;;;;;;-3.12;100.00;99748.41;6185970;23;20509;-77
2022/12/10 02:18:43;;;;;;;0.10;0.10;;;;;;;-3.19;100.00;99750.19;6186911;23;20032;-78
2022/12/10 02:21:16;;;;;;;0.00;0.00;;;;;;;-3.25;100.00;99750.97;6183457;23;20072;-77
2022/12/10 02:23:50;;;;;;;0.10;0.10;;;;;;;-3.33;100.00;99739.38;6182749;23;20032;-78
2022/12/10 02:26:31;;;;;;;0.10;0.10;;;;;;;-3.26;100.00;99751.97;6181925;23;20313;-78
2022/12/10 02:29:14;;;;;;;0.10;0.10;;;;;;;-3.29;100.00;99750.50;6186462;23;20067;-79
2022/12/10 02:31:46;;;;;;;0.00;0.00;;;;;;;-3.26;100.00;99754.66;6178825;23;20004;-78
2022/12/10 02:34:14;;;;;;;0.00;0.00;;;;;;;-3.27;100.00;99747.63;6182939;23;20001;-78
2022/12/10 02:36:44;;;;;;;0.00;0.00;;;;;;;-3.40;100.00;99740.31;6180382;23;20559;-78
2022/12/10 02:39:14;;;;;;;0.00;0.00;;;;;;;-3.46;100.00;99741.94;6182240;23;20004;-78
2022/12/10 02:41:49;;;;;;;0.00;0.00;;;;;;;-3.55;100.00;99748.41;6203873;23;20210;-78
2022/12/10 02:44:19;;;;;;;0.10;0.10;;;;;;;-3.65;100.00;99755.91;6181071;23;20381;-78
2022/12/10 02:46:47;;;;;;;0.00;0.00;;;;;;;-3.81;99.38;99740.94;6182103;23;20490;-77
2022/12/10 02:49:16;;;;;;;0.10;0.10;;;;;;;-3.80;99.76;99767.47;6181589;23;20486;-79
2022/12/10 02:51:41;;;;;;;0.00;0.00;;;;;;;-3.88;99.69;99756.91;6182396;23;20104;-79
2022/12/10 02:54:40;;;;;;;0.10;0.10;;;;;;;-3.95;99.52;99748.00;6186672;23;20388;-78
2022/12/10 02:57:23;;;;;;;0.00;0.00;;;;;;;-3.91;99.87;99741.25;6186004;23;20063;-79
2022/12/10 03:00:01;;;;;;;0.00;0.00;;;;;;;-3.77;100.00;99759.06;6182099;23;19996;-78
2022/12/10 03:02:59;;;;;;;0.00;0.00;;;;;;;-3.59;100.00;99758.66;6207887;23;20007;-79
2022/12/10 03:05:34;;;;;;;0.00;0.00;;;;;;;-3.45;100.00;99761.47;6115877;23;20015;-78
2022/12/10 03:08:08;;;;;;;0.00;0.00;;;;;;;-3.31;100.00;99757.06;6183713;23;20020;-79
2022/12/10 03:10:44;;;;;;;0.10;0.10;;;;;;;-3.24;100.00;99744.59;6179735;23;20001;-78
2022/12/10 03:13:19;;;;;;;0.10;0.10;;;;;;;-3.33;100.00;99726.00;6181074;23;20396;-79
2022/12/10 03:15:47;;;;;;;0.10;0.10;;;;;;;-3.12;100.00;99748.41;6181429;23;20447;-78
2022/12/10 03:18:16;;;;;;;0.00;0.00;;;;;;;-3.00;100.00;99760.22;6186588;23;20012;-78
2022/12/10 03:20:44;;;;;;;0.00;0.00;;;;;;;-2.94;100.00;99753.28;6180121;23;20005;-78
2022/12/10 03:23:15;;;;;;;0.00;0.00;;;;;;;-2.86;100.00;99750.47;6154155;23;20067;-78
2022/12/10 03:25:46;;;;;;;0.10;0.10;;;;;;;-2.85;100.00;99744.09;6183630;23;20057;-79
2022/12/10 03:28:13;;;;;;;0.00;0.00;;;;;;;-2.72;100.00;99756.72;6205880;23;20004;-78
2022/12/10 03:30:39;;;;;;;0.00;0.00;;;;;;;-2.79;100.00;99744.31;6156165;23;20280;-78
2022/12/10 03:33:05;;;;;;;0.10;0.10;;;;;;;-2.78;100.00;99746.78;6184091;23;20000;-78
2022/12/10 03:35:32;;;;;;;0.10;0.10;;;;;;;-2.89;100.00;99723.25;6180854;23;20012;-78
2022/12/10 03:38:16;;;;;;;0.00;0.00;;;;;;;-2.76;100.00;99736.75;6182835;23;20299;-79
2022/12/10 03:41:00;;;;;;;;;;;;;;;;;;;;;
2022/12/10 03:43:29;;;;;;;0.10;0.10;;;;;;;-3.07;100.00;99697.81;6209931;23;20078;-78
2022/12/10 03:45:54;;;;;;;0.00;0.00;;;;;;;-2.79;100.00;99747.81;6203221;23;20001;-78
2022/12/10 03:48:19;;;;;;;0.10;0.10;;;;;;;-3.08;100.00;99709.56;6160294;23;20529;-78
2022/12/10 03:50:55;;;;;;;;;;;;;;;;;;;;;
2022/12/10 03:53:20;;;;;;;0.00;0.00;;;;;;;-2.95;100.00;99724.84;6211203;23;20097;-78
2022/12/10 03:55:46;;;;;;;0.00;0.00;;;;;;;-2.95;100.00;99730.19;6176268;23;20035;-78
2022/12/10 03:58:11;;;;;;;0.10;0.10;;;;;;;-3.04;100.00;99720.69;6155251;23;20005;-77
2022/12/10 04:00:37;;;;;;;0.10;0.10;;;;;;;-3.02;100.00;99729.34;6179855;23;20305;-79
2022/12/10 04:03:04;;;;;;;0.00;0.00;;;;;;;-3.08;100.00;99719.41;6183611;23;20443;-78
2022/12/10 04:05:30;;;;;;;0.10;0.10;;;;;;;-3.00;100.00;99728.13;6159539;23;20313;-77
2022/12/10 04:07:55;;;;;;;0.10;0.10;;;;;;;-2.95;100.00;99729.38;6127549;23;20028;-79
2022/12/10 04:10:21;;;;;;;0.00;0.00;;;;;;;-2.99;100.00;99732.44;6155984;23;20254;-79
2022/12/10 04:16:26;;;;;;;0.00;0.00;;;;;;;-3.00;100.00;99728.13;6128464;23;20392;-78
2022/12/10 04:18:22;;;;;;;0.00;0.00;;;;;;;-3.04;100.00;99726.88;6207211;23;20382;-77
2022/12/10 04:28:59;;;;;;;0.10;0.10;;;;;;;-3.01;100.00;99750.56;6164122;23;20034;-77
2022/12/10 04:31:25;;;;;;;0.10;0.10;;;;;;;-2.99;100.00;99735.13;6153319;23;20772;-79
2022/12/10 04:33:50;;;;;;;0.00;0.00;;;;;;;-2.89;100.00;99750.84;6184252;23;20019;-79
2022/12/10 04:36:16;;;;;;;0.00;0.00;;;;;;;-2.75;100.00;99749.06;6132705;23;20070;-78
2022/12/10 04:38:41;;;;;;;0.10;0.10;;;;;;;-2.74;100.00;99737.38;6131743;23;20336;-77
2022/12/10 04:41:15;;;;;;;0.00;0.00;;;;;;;-2.57;100.00;99747.75;6154616;23;20008;-78
2022/12/10 04:43:41;;;;;;;0.10;0.10;;;;;;;-2.54;100.00;99750.88;6161074;23;20281;-79
2022/12/10 04:46:06;;;;;;;0.10;0.10;;;;;;;-2.47;100.00;99753.56;6156637;23;20012;-78
2022/12/10 04:48:32;;;;;;;0.10;0.10;;;;;;;-2.53;100.00;99741.00;6131532;23;20095;-79
2022/12/10 04:50:57;;;;;;;0.00;0.00;;;;;;;-2.54;100.00;99737.50;6133460;23;20694;-79
2022/12/10 04:53:23;;;;;;;0.10;0.10;;;;;;;-2.53;100.00;99743.66;6160102;23;20005;-78
2022/12/10 04:55:55;;;;;;;0.00;0.00;;;;;;;-2.64;100.00;99732.47;6157641;23;20005;-78
2022/12/10 04:58:23;;;;;;;0.00;0.00;;;;;;;-2.63;100.00;99733.31;6159653;23;20454;-79
2022/12/10 05:00:50;;;;;;;0.00;0.00;;;;;;;-2.78;100.00;99714.69;6158592;23;20015;-78
2022/12/10 05:03:16;;;;;;;0.10;0.10;;;;;;;-2.64;100.00;99737.84;6181905;23;20486;-77
2022/12/10 05:05:41;;;;;;;0.00;0.00;;;;;;;-2.63;100.00;99738.66;6158577;23;20059;-76
2022/12/10 05:08:07;;;;;;;0.00;0.00;;;;;;;-2.68;100.00;99736.56;6182103;23;20009;-78
2022/12/10 05:10:34;;;;;;;0.00;0.00;;;;;;;-2.72;100.00;99735.31;6160475;23;20005;-78
2022/12/10 05:13:00;;;;;;;0.00;0.00;;;;;;;-2.75;100.00;99726.84;6153693;23;20024;-78
2022/12/10 05:15:25;;;;;;;0.00;0.00;;;;;;;-2.71;100.00;99731.63;6134745;23;20127;-77
2022/12/10 05:17:51;;;;;;;0.00;0.00;;;;;;;-2.76;100.00;99727.88;6180729;23;20004;-78
2022/12/10 05:20:16;;;;;;;0.00;0.00;;;;;;;-2.73;100.00;99728.31;6209667;23;20007;-77
2022/12/10 05:25:26;;;;;;;0.00;0.00;;;;;;;-2.75;100.00;99706.25;6166418;23;20028;-77
2022/12/10 05:27:53;;;;;;;0.00;0.00;;;;;;;-2.53;100.00;99730.28;6157107;23;20009;-77
2022/12/10 05:30:19;;;;;;;0.00;0.00;;;;;;;-2.55;100.00;99724.31;6135094;23;20016;-77
2022/12/10 05:32:44;;;;;;;0.00;0.00;;;;;;;-2.60;100.00;99716.84;6158779;23;20013;-79
2022/12/10 05:35:09;;;;;;;0.00;0.00;;;;;;;-2.50;100.00;99713.81;6154516;23;20124;-78
2022/12/10 05:37:37;;;;;;;0.10;0.10;;;;;;;-2.53;100.00;99706.19;6159690;23;20013;-78
2022/12/10 05:40:03;;;;;;;0.10;0.10;;;;;;;-2.34;100.00;99720.69;6179880;23;20471;-79
2022/12/10 05:42:29;;;;;;;0.00;0.00;;;;;;;-2.21;100.00;99731.47;6158639;23;20087;-77
2022/12/10 05:44:54;;;;;;;0.00;0.00;;;;;;;-2.17;100.00;99726.56;6135497;23;20051;-78
2022/12/10 05:47:19;;;;;;;0.00;0.00;;;;;;;-2.13;100.00;99727.81;6153098;23;20012;-78
2022/12/10 05:49:47;;;;;;;0.00;0.00;;;;;;;-2.23;100.00;99711.25;6185892;23;20008;-78
2022/12/10 05:52:12;;;;;;;0.00;0.00;;;;;;;-2.20;100.00;99717.06;6154198;23;20276;-78
2022/12/10 05:54:37;;;;;;;0.10;0.10;;;;;;;-2.14;100.00;99715.44;6133160;23;20091;-77
2022/12/10 05:57:03;;;;;;;0.00;0.00;;;;;;;-2.11;100.00;99717.72;6131584;23;20091;-77
2022/12/10 05:59:28;;;;;;;0.00;0.00;;;;;;;-2.16;100.00;99706.75;6157811;23;20012;-78
2022/12/10 06:01:54;;;;;;;0.10;0.10;;;;;;;-2.13;100.00;99719.78;6134537;23;20099;-78
2022/12/10 06:04:19;;;;;;;0.00;0.00;;;;;;;-2.17;100.00;99716.66;6155186;23;20000;-78
2022/12/10 06:06:46;;;;;;;0.00;0.00;;;;;;;-2.21;100.00;99725.28;6134546;23;20012;-77
2022/12/10 06:09:13;;;;;;;0.00;0.00;;;;;;;-2.21;100.00;99733.31;6178814;23;20079;-78
2022/12/10 06:11:38;;;;;;;0.00;0.00;;;;;;;-2.25;100.00;99740.09;6182857;23;20084;-78
2022/12/10 06:14:04;;;;;;;0.10;0.10;;;;;;;-2.31;100.00;99737.22;6167980;23;20059;-78
2022/12/10 06:16:29;;;;;;;0.00;0.00;;;;;;;-2.40;100.00;99733.03;6104217;23;20391;-78
2022/12/10 06:18:56;;;;;;;0.10;0.10;;;;;;;-2.39;100.00;99740.03;6181863;23;20004;-79
2022/12/10 06:21:22;;;;;;;0.00;0.00;;;;;;;-2.37;100.00;99737.97;6147307;23;20016;-77
2022/12/10 06:23:48;;;;;;;0.00;0.00;;;;;;;-2.36;100.00;99739.63;6153271;23;20001;-78
2022/12/10 06:26:17;;;;;;;0.00;0.00;;;;;;;-2.41;100.00;99728.72;6146394;23;20451;-77
2022/12/10 06:28:46;;;;;;;0.10;0.10;;;;;;;-2.34;100.00;99732.22;6175334;23;20028;-77
2022/12/10 06:31:12;;;;;;;0.00;0.00;;;;;;;-2.27;100.00;99737.63;6153080;23;20005;-78
2022/12/10 06:33:38;;;;;;;0.00;0.00;;;;;;;-2.25;100.00;99737.44;6127377;23;20016;-78
2022/12/10 06:36:05;;;;;;;0.03;0.03;;;;;;;-2.24;100.00;99736.41;6149099;23;20005;-78
2022/12/10 06:38:34;;;;;;;0.00;0.00;;;;;;;-2.25;100.00;99737.44;6151887;23;20005;-78
2022/12/10 06:41:00;;;;;;;0.00;0.00;;;;;;;-2.22;100.00;99737.03;6136534;23;20001;-77
2022/12/10 06:43:28;;;;;;;0.00;0.00;;;;;;;-2.26;100.00;99735.75;6127840;23;20009;-76
2022/12/10 06:45:53;;;;;;;0.00;0.00;;;;;;;-2.21;100.00;99736.81;6154597;23;20428;-78
2022/12/10 06:48:19;;;;;;;0.00;0.00;;;;;;;-2.16;100.00;99749.63;6151170;23;20211;-77
2022/12/10 06:50:44;;;;;;;0.00;0.00;;;;;;;-2.26;100.00;99743.78;6124994;23;20032;-77
2022/12/10 06:53:10;;;;;;;0.00;0.00;;;;;;;-2.35;100.00;99725.22;6151636;23;20455;-79
2022/12/10 06:55:37;;;;;;;0.00;0.00;;;;;;;-2.26;100.00;99736.59;6126123;23;20339;-77
2022/12/10 06:58:03;;;;;;;0.00;0.00;;;;;;;-2.22;100.00;99742.38;6131398;23;20021;-77
2022/12/10 07:00:28;;;;;;;0.00;0.00;;;;;;;-2.20;100.00;99737.66;6126828;23;20009;-77
2022/12/10 07:02:54;;;;;;;0.10;0.10;;;;;;;-2.18;100.00;99735.59;6102190;23;20009;-77
2022/12/10 07:05:19;;;;;;;0.00;0.00;;;;;;;-2.18;100.00;99740.97;6128361;23;20079;-77
2022/12/10 07:07:45;;;;;;;0.00;0.00;;;;;;;-2.20;100.00;99738.47;6124075;23;20009;-77
2022/12/10 07:10:10;;;;;;;0.00;0.00;;;;;;;-2.33;100.00;99725.84;6102711;23;20016;-78
2022/12/10 07:12:36;;;;;;;0.10;0.10;;;;;;;-2.35;100.00;99725.22;6150982;23;20078;-78
2022/12/10 07:15:03;;;;;;;0.00;0.00;;;;;;;-2.38;100.00;99735.50;6131925;23;20023;-77
2022/12/10 07:17:29;;;;;;;0.00;0.00;;;;;;;-2.36;100.00;99744.19;6104161;23;20072;-75
2022/12/10 07:19:54;;;;;;;0.00;0.00;;;;;;;-2.47;100.00;99732.16;6175801;23;20009;-75
2022/12/10 07:22:32;;;;;;;;;;;;;;;;;;;;;
2022/12/10 07:24:58;;;;;;;0.00;0.00;;;;;;;-2.57;100.00;99739.72;6135876;23;20456;-78
2022/12/10 07:27:23;;;;;;;0.10;0.10;;;;;;;-2.65;100.00;99733.50;6154355;23;20036;-77
2022/12/10 07:29:49;;;;;;;0.00;0.00;;;;;;;-2.58;100.00;99743.44;6151124;23;20009;-79
2022/12/10 07:32:14;;;;;;;0.10;0.10;;;;;;;-2.65;100.00;99735.34;6153643;23;20055;-80
2022/12/10 07:34:40;;;;;;;0.05;0.05;;;;;;;-2.60;100.00;99751.66;6124717;23;20020;-81
2022/12/10 07:37:08;;;;;;;0.00;0.00;;;;;;;-2.66;100.00;99750.59;6104616;23;20015;-81
2022/12/10 07:39:38;;;;;;;0.00;0.00;;;;;;;-2.94;100.00;99715.00;6103647;23;20016;-80
2022/12/10 07:42:06;;;;;;;0.00;0.00;;;;;;;-2.91;100.00;99725.31;6126606;23;20009;-81
2022/12/10 07:44:44;;;;;;;;;;;;;;;;;;;;;
2022/12/10 07:47:24;;;;;;;0.10;0.10;;;;;;;-3.15;100.00;99692.63;6176517;23;20097;-81
2022/12/10 07:49:55;;;;;;;0.00;0.00;;;;;;;-3.06;100.00;99691.44;6180895;23;20028;-81
2022/12/10 07:52:23;;;;;;;0.00;0.00;;;;;;;-2.94;100.00;99698.94;6126135;23;20031;-82
2022/12/10 07:54:56;;;;;;;0.00;0.00;;;;;;;-2.94;100.00;99701.63;6153099;23;20019;-83
2022/12/10 07:57:24;;;;;;;0.10;0.10;;;;;;;-2.94;100.00;99699.75;6147200;23;20067;-81
2022/12/10 08:00:25;;;;;;;;;;;;;;;;;;;;;
2022/12/10 08:02:51;;;;;;;0.10;0.10;;;;;;;-2.84;100.00;99718.16;6148836;23;20088;-81
2022/12/10 08:05:16;;;;;;;0.00;0.00;;;;;;;-2.92;100.00;99703.09;6154748;23;20027;-84
2022/12/10 08:08:13;;;;;;;0.00;0.00;;;;;;;-2.83;100.00;99717.13;6151621;23;20372;-83
2022/12/10 08:10:30;;;;;;;0.00;0.00;;;;;;;-2.73;100.00;99739.03;6170810;23;20012;-81
2022/12/10 08:13:15;;;;;;;0.05;0.05;;;;;;;-2.89;100.00;99728.59;6146722;23;20005;-80
2022/12/10 08:15:43;;;;;;;0.00;0.00;;;;;;;-2.77;100.00;99756.50;6171151;23;20021;-78
2022/12/10 08:18:09;;;;;;;0.10;0.10;;;;;;;-2.93;100.00;99732.72;6124345;23;20009;-83
2022/12/10 08:20:37;;;;;;;0.00;0.00;;;;;;;-2.97;100.00;99736.78;6150335;23;20023;-77
2022/12/10 08:23:12;;;;;;;;;;;;;;;;;;;;;
2022/12/10 08:25:38;;;;;;;0.00;0.00;;;;;;;-3.07;100.00;99745.97;6174702;23;20091;-78
2022/12/10 08:28:08;;;;;;;0.00;0.00;;;;;;;-2.95;100.00;99750.78;6124114;23;20385;-78
2022/12/10 08:30:41;;;;;;;0.00;0.00;;;;;;;-2.89;100.00;99750.84;6127191;23;20092;-78
2022/12/10 08:33:07;;;;;;;0.10;0.10;;;;;;;-2.91;100.00;99736.00;6151166;23;20024;-79
2022/12/10 08:35:35;;;;;;;0.00;0.00;;;;;;;-2.91;100.00;99752.06;6106532;23;20015;-81
2022/12/10 08:38:01;;;;;;;0.10;0.10;;;;;;;-2.91;100.00;99744.03;6127467;23;20088;-82
2022/12/10 08:40:26;;;;;;;0.00;0.00;;;;;;;-2.73;100.00;99767.63;6127767;23;20041;-80
2022/12/10 08:42:54;;;;;;;0.10;0.10;;;;;;;-2.75;100.00;99767.81;6127381;23;20020;-82
2022/12/10 08:45:25;;;;;;;0.00;0.00;;;;;;;-2.75;100.00;99757.09;6125038;23;20277;-82
2022/12/10 08:47:57;;;;;;;0.00;0.00;;;;;;;-2.63;100.00;99774.31;6153036;23;20012;-81
2022/12/10 08:50:23;;;;;;;0.10;0.10;;;;;;;-2.56;100.00;99781.53;6175064;23;20092;-80
2022/12/10 08:52:48;;;;;;;0.00;0.00;;;;;;;-2.53;100.00;99781.97;6153297;23;20456;-80
2022/12/10 08:55:14;;;;;;;0.00;0.00;;;;;;;-2.56;100.00;99765.47;6151875;23;20009;-80
2022/12/10 08:57:47;;;;;;;0.00;0.00;;;;;;;-2.50;100.00;99751.31;6154417;23;20036;-82
2022/12/10 09:00:13;;;;;;;0.00;0.00;;;;;;;-2.48;100.00;99754.63;6130484;23;20328;-80
2022/12/10 09:02:39;;;;;;;0.00;0.00;;;;;;;-2.30;100.00;99787.06;6153421;23;20004;-81
2022/12/10 09:05:05;;;;;;;0.00;0.00;;;;;;;-2.35;100.00;99762.72;6155122;23;20088;-80
2022/12/10 09:07:30;;;;;;;0.00;0.00;;;;;;;-2.27;100.00;99761.72;6152729;23;20023;-81
2022/12/10 09:09:56;;;;;;;0.00;0.00;;;;;;;-2.22;100.00;99761.13;6182178;23;20636;-80
2022/12/10 09:12:29;;;;;;;0.00;0.00;;;;;;;-2.00;100.00;99786.81;6154676;23;20383;-82
2022/12/10 09:14:57;;;;;;;0.00;0.00;;;;;;;-2.18;100.00;99746.31;6157784;23;20028;-83
2022/12/10 09:17:25;;;;;;;0.10;0.10;;;;;;;-2.10;100.00;99748.84;6131994;23;20071;-80
2022/12/10 09:20:00;;;;;;;0.10;0.10;;;;;;;-1.98;100.00;99752.59;6132836;23;20005;-81
2022/12/10 09:22:25;;;;;;;0.10;0.10;;;;;;;-1.76;100.00;99772.03;6134039;23;20503;-80
2022/12/10 09:24:51;;;;;;;0.00;0.00;;;;;;;-1.68;100.00;99765.69;6108934;23;20129;-82
2022/12/10 09:27:16;;;;;;;0.10;0.10;;;;;;;-1.63;100.00;99755.16;6183448;23;20024;-81
2022/12/10 09:29:42;;;;;;;0.00;0.00;;;;;;;-1.37;100.00;99764.31;6131839;23;20005;-82
2022/12/10 09:32:07;;;;;;;0.00;0.00;;;;;;;-0.64;100.00;99774.22;6156735;23;20001;-80
2022/12/10 09:34:35;;;;;;;0.00;0.00;;;;;;;1.44;100.00;99757.78;6157212;23;20067;-81
2022/12/10 09:37:03;;;;;;;0.00;0.00;;;;;;;5.01;86.77;99758.66;6132960;23;20072;-81
2022/12/10 09:39:35;;;;;;;0.10;0.10;;;;;;;8.64;68.87;99785.28;6153370;23;20028;-77
2022/12/10 09:42:19;;;;;;;0.00;0.00;;;;;;;11.15;58.50;99798.63;6153804;23;20028;-78
2022/12/10 09:45:17;;;;;;;0.00;0.00;;;;;;;12.75;51.46;99793.13;6151964;23;20008;-80
2022/12/10 09:48:11;;;;;;;0.00;0.00;;;;;;;13.63;48.78;99808.25;6153493;23;20013;-81
2022/12/10 09:50:54;;;;;;;0.00;0.00;;;;;;;14.79;44.96;99813.72;6116094;23;20009;-82
2022/12/10 09:53:20;;;;;;;0.00;0.00;;;;;;;15.76;41.14;99806.97;6156250;23;20009;-81
2022/12/10 09:55:47;;;;;;;0.05;0.05;;;;;;;16.56;39.87;99801.47;6180439;23;20364;-83
2022/12/10 09:58:23;;;;;;;0.00;0.00;;;;;;;17.82;37.29;99806.31;6156853;23;19997;-83
2022/12/10 10:00:57;;;;;;;0.00;0.00;;;;;;;18.61;33.17;99817.06;6152637;23;20036;-82
2022/12/10 10:03:22;;;;;;;0.10;0.10;;;;;;;18.95;32.07;99807.75;6158315;23;20008;-81
2022/12/10 10:05:54;;;;;;;0.00;0.00;;;;;;;17.16;32.40;99792.78;6154468;23;20005;-83
2022/12/10 10:08:42;;;;;;;0.03;0.03;;;;;;;12.84;38.07;99803.44;6156846;23;20036;-82
2022/12/10 10:11:21;;;;;;;0.00;0.00;;;;;;;9.40;44.25;99802.00;6138533;23;20064;-82
2022/12/10 10:13:53;;;;;;;0.00;0.00;;;;;;;7.06;49.16;99786.81;6154269;23;20025;-82
2022/12/10 10:16:21;;;;;;;0.00;0.00;;;;;;;5.63;53.64;99792.16;6154860;23;20069;-81
2022/12/10 10:18:54;;;;;;;0.00;0.00;;;;;;;4.58;57.03;99794.47;6181228;23;20409;-82
2022/12/10 10:21:38;;;;;;;0.00;0.00;;;;;;;3.89;59.81;99790.63;6153099;23;20012;-82
2022/12/10 10:24:11;;;;;;;0.00;0.00;;;;;;;4.55;62.17;99795.75;6153643;23;20012;-81
2022/12/10 10:26:36;;;;;;;0.00;0.00;;;;;;;7.21;57.67;99785.31;6154734;23;20088;-81
2022/12/10 10:29:07;;;;;;;0.10;0.10;;;;;;;11.25;49.08;99801.28;6103311;23;21951;-83
2022/12/10 10:31:34;;;;;;;0.00;0.00;;;;;;;15.30;41.36;99794.34;6154008;23;20432;-81
2022/12/10 10:34:12;;;;;;;0.00;0.00;;;;;;;18.93;35.42;99804.50;6133230;23;20416;-82
2022/12/10 10:36:39;;;;;;;0.00;0.00;;;;;;;21.53;31.85;99807.50;6155179;23;20032;-83
2022/12/10 10:39:28;;;;;;;0.00;0.00;;;;;;;22.24;28.64;99813.28;6158151;23;20005;-83
2022/12/10 10:42:00;;;;;;;0.00;0.00;;;;;;;22.23;28.41;99814.47;6153777;23;20005;-82
2022/12/10 10:44:38;;;;;;;0.00;0.00;;;;;;;23.92;28.14;99831.28;6154495;23;20005;-82
2022/12/10 10:47:25;;;;;;;0.00;0.00;;;;;;;25.51;26.79;99806.50;6153680;23;20111;-82
2022/12/10 10:49:50;;;;;;;0.00;0.00;;;;;;;26.65;25.91;99806.75;6153416;23;20099;-80
2022/12/10 10:52:18;;;;;;;0.00;0.00;;;;;;;27.10;25.23;99808.59;6103737;23;20104;-80
2022/12/10 10:54:50;;;;;;;0.00;0.00;;;;;;;27.67;25.18;99814.47;6129220;23;20324;-81
2022/12/10 10:57:32;;;;;;;0.00;0.00;;;;;;;28.54;25.02;99808.91;6149587;23;20009;-81
2022/12/10 11:00:20;;;;;;;0.00;0.00;;;;;;;29.64;23.50;99810.97;6154600;23;19997;-81
2022/12/10 11:02:51;;;;;;;0.00;0.00;;;;;;;29.69;21.88;99814.16;6152112;23;20028;-80
2022/12/10 11:05:30;;;;;;;0.00;0.00;;;;;;;30.32;21.10;99815.34;6130180;23;20036;-82
2022/12/10 11:08:07;;;;;;;0.00;0.00;;;;;;;30.45;20.33;99797.50;6179383;23;20079;-83
2022/12/10 11:10:33;;;;;;;0.00;0.00;;;;;;;31.54;20.34;99807.56;6150360;23;20178;-80
2022/12/10 11:13:28;;;;;;;0.00;0.00;;;;;;;32.29;19.77;99805.66;6179613;23;20005;-81
2022/12/10 11:15:55;;;;;;;0.00;0.00;;;;;;;32.25;18.94;99810.56;6151085;23;20546;-80
2022/12/10 11:18:39;;;;;;;0.00;0.00;;;;;;;31.33;19.45;99796.13;6156289;23;20005;-84
2022/12/10 11:21:10;;;;;;;0.00;0.00;;;;;;;31.55;19.45;99803.53;6153629;23;20005;-79
2022/12/10 11:23:41;;;;;;;0.00;0.00;;;;;;;31.22;17.59;99803.97;6151748;23;20009;-79
2022/12/10 11:26:21;;;;;;;0.00;0.00;;;;;;;30.35;18.46;99798.38;6151168;23;20091;-79
2022/12/10 11:29:15;;;;;;;0.00;0.00;;;;;;;31.04;17.47;99792.06;6153511;23;20453;-80
2022/12/10 11:32:07;;;;;;;0.00;0.00;;;;;;;29.33;17.44;99797.44;6097879;23;20009;-79
2022/12/10 11:34:45;;;;;;;0.00;0.00;;;;;;;29.52;16.84;99798.16;6083000;23;20050;-80
2022/12/10 11:37:38;;;;;;;0.00;0.00;;;;;;;28.80;17.26;99768.28;6153262;23;20340;-79
2022/12/10 11:40:10;;;;;;;0.00;0.00;;;;;;;28.00;17.59;99781.63;6149940;23;20012;-79
2022/12/10 11:42:38;;;;;;;0.00;0.00;;;;;;;26.99;18.88;99775.69;6152658;23;20036;-80
2022/12/10 11:45:33;;;;;;;0.00;0.00;;;;;;;27.21;19.01;99772.97;6146874;23;20009;-80
2022/12/10 11:48:30;;;;;;;;;;;;;;;28.04;18.58;99776.81;6024993;23;20011;-79
2022/12/10 11:51:31;;;;;;;0.00;0.00;;;;;;;28.04;18.33;99768.38;6153181;23;19920;-78
2022/12/10 11:54:21;;;;;;;0.00;0.00;;;;;;;29.31;18.38;99768.91;6093711;23;20009;-80
2022/12/10 11:56:59;;;;;;;0.00;0.00;;;;;;;30.22;16.86;99760.66;6154210;23;20005;-81
2022/12/10 11:59:56;;;;;;;0.00;0.00;;;;;;;30.93;17.01;99775.25;6152467;23;20008;-79
2022/12/10 12:02:46;;;;;;;0.00;0.00;;;;;;;31.78;15.93;99761.22;6151574;23;20321;-83
2022/12/10 12:05:36;;;;;;;0.00;0.00;;;;;;;30.98;15.77;99766.31;6152665;23;20096;-80
2022/12/10 12:15:41;;;;;;;0.00;0.00;;;;;;;31.79;15.22;99751.50;6056544;23;20038;-81
2022/12/10 12:18:26;;;;;;;0.00;0.00;;;;;;;32.39;15.84;99753.75;6011894;23;20026;-81